• Join FlightAware (Why Join?)
  • Login
  • US Flag 
02:07PM EDT


 

Airport Tracker/Info


-or-


 

Live Flight TrackerFlight Track Log ✈ SWA2523 ✈ 02-Jan-2014 ✈ KMHT - KMCO

Flight Track Log - Related Links

Times and Time Zones

All times are in EST time to prevent confusion due to time zone crossing. See the SWA2523 flight status page for this flight to view local times or setup timezone preferences in your user account.

Time Position Orientation Groundspeed Altitude Reporting Facility
EST Latitude Longitude Course Direction KTS MPH feet Rate Location/Type
09:30AM 42.9500 -71.4333 323° Northwest 150 173 1,100  Level KA90
09:31AM 42.9800 -71.4644 323° Northwest 169 194 2,500 1,800 Climbing Boston Center
09:32AM 43.0319 -71.4600 North 223 257 4,400 2,100 Climbing Boston Center
09:33AM 43.0394 -71.3633 84° East 257 296 6,800 2,700 Climbing Boston Center
09:34AM 43.0486 -71.2464 84° East 309 356 9,800 2,220 Climbing Boston Center
09:35AM 43.0597 -71.1164 83° East 349 402 11,500 1,740 Climbing Boston Center
09:36AM 43.0556 -70.9628 92° East 412 474 13,500 2,280 Climbing Boston Center
09:37AM 42.9672 -70.8956 151° Southeast 372 428 16,200 2,280 Climbing Boston Center
09:38AM 42.8744 -70.9369 198° South 351 404 18,200 2,400 Climbing Boston Center
09:39AM 42.7867 -70.9778 199° South 349 402 21,000 2,520 Climbing Boston Center
09:40AM 42.6914 -71.0233 199° South 360 414 23,300 1,800 Climbing Boston Center
09:41AM 42.5992 -71.0831 205° Southwest 369 425 24,700 1,560 Climbing Boston Center
09:42AM 42.5158 -71.1700 218° Southwest 380 437 26,500 2,460 Climbing Boston Center
09:43AM 42.4353 -71.2514 217° Southwest 365 420 29,700 2,760 Climbing Boston Center
09:44AM 42.3633 -71.3278 218° Southwest 337 388 32,200 2,280 Climbing Boston Center
09:45AM 42.2828 -71.4119 218° Southwest 317 365 34,400 1,800 Climbing Boston Center
09:46AM 42.2142 -71.4814 217° Southwest 310 357 36,000 780 Climbing Boston Center
09:47AM 42.1492 -71.5494 218° Southwest 299 344 36,000  Level Boston Center
09:48AM 42.0831 -71.6181 218° Southwest 299 344 36,000  Level Boston Center
09:49AM 42.0158 -71.6856 217° Southwest 301 346 36,000 600 Level Boston Center
09:50AM 41.9503 -71.7519 217° Southwest 297 342 37,300 960 Climbing Boston Center
09:51AM 41.8872 -71.8172 218° Southwest 289 333 38,000 300 Climbing Boston Center
09:52AM 41.8239 -71.8819 217° Southwest 287 330 38,000  Level Boston Center
09:53AM 41.7592 -71.9461 216° Southwest 289 333 38,000  Level Boston Center
09:54AM 41.6947 -72.0131 218° Southwest 291 335 38,000  Level Boston Center
09:55AM 41.6294 -72.0792 217° Southwest 293 337 38,000  Level Boston Center
09:56AM 41.5642 -72.1450 217° Southwest 294 338 38,000  Level Boston Center
09:57AM 41.4931 -72.2164 217° Southwest 292 336 38,000  Level Boston Center
09:58AM 41.4286 -72.2822 217° Southwest 292 336 38,000  Level Boston Center
09:59AM 41.3636 -72.3469 217° Southwest 293 337 38,000  Level Boston Center
10:00AM 41.2992 -72.4114 217° Southwest 290 334 38,000  Level Boston Center
10:01AM 41.2278 -72.4833 217° Southwest 291 335 38,000  Level Boston Center
10:02AM 41.1633 -72.5461 216° Southwest 288 331 38,000  Level Boston Center
10:03AM 41.0992 -72.6108 217° Southwest 290 334 38,000  Level Boston Center
10:04AM 41.0344 -72.6739 216° Southwest 288 331 38,000  Level Boston Center
10:05AM 40.9706 -72.7372 217° Southwest 289 333 38,000  Level Boston Center
10:06AM 40.9047 -72.8000 216° Southwest 290 334 38,000  Level Boston Center
10:07AM 40.8414 -72.8672 219° Southwest 291 335 38,000  Level Boston Center
10:08AM 40.7764 -72.9272 215° Southwest 288 331 38,000  Level Boston Center
10:10AM 40.7086 -72.9978 218° Southwest 290 334 38,000  Level Boston Center
10:11AM 40.6442 -73.0603 216° Southwest 289 333 38,000  Level Boston Center
10:12AM 40.5797 -73.1225 216° Southwest 288 331 38,000  Level Boston Center
10:13AM 40.5156 -73.1847 216° Southwest 287 330 38,000  Level Boston Center
10:14AM 40.4500 -73.2469 216° Southwest 290 334 38,000  Level Boston Center
10:15AM 40.3847 -73.3097 216° Southwest 290 334 38,000  Level Boston Center
10:16AM 40.3194 -73.3722 216° Southwest 291 335 38,000  Level Boston Center
10:17AM 40.2542 -73.4356 217° Southwest 292 336 38,000  Level Boston Center
10:18AM 40.1814 -73.5056 216° Southwest 292 336 38,000  Level Boston Center
10:19AM 40.1172 -73.5686 217° Southwest 291 335 38,000  Level Boston Center
10:19AM 40.0803 -73.6042 216° Southwest 293 337 38,000  Level Washington Center
10:20AM 40.0147 -73.6656 216° Southwest 293 337 38,000  Level Washington Center
10:21AM 39.9469 -73.7269 215° Southwest 293 337 38,000  Level Washington Center
10:22AM 39.8811 -73.7936 218° Southwest 298 343 38,000  Level Washington Center
10:23AM 39.8133 -73.8547 215° Southwest 298 343 38,000  Level Washington Center
10:24AM 39.7456 -73.9211 217° Southwest 303 349 38,000  Level Washington Center
10:25AM 39.6797 -73.9819 215° Southwest 303 349 38,000  Level Washington Center
10:26AM 39.6097 -74.0456 215° Southwest 309 356 38,000  Level Washington Center
10:27AM 39.5439 -74.1089 217° Southwest 309 356 38,000  Level Washington Center
10:28AM 39.4758 -74.1719 216° Southwest 309 356 38,000  Level Washington Center
10:29AM 39.4078 -74.2353 216° Southwest 309 356 38,000  Level Washington Center
10:30AM 39.3419 -74.2981 216° Southwest 309 356 38,000  Level Washington Center
10:32AM 39.2353 -74.3972 216° Southwest 301 346 38,000  Level Boston Center
10:33AM 39.1394 -74.4864 216° Southwest 309 356 38,000  Level Washington Center
10:34AM 39.0714 -74.5542 218° Southwest 309 356 38,000  Level Washington Center
10:35AM 39.0008 -74.6139 213° Southwest 310 357 38,000  Level Washington Center
10:36AM 38.9306 -74.6792 216° Southwest 310 357 38,000  Level Washington Center
10:37AM 38.8603 -74.7439 216° Southwest 310 357 38,000  Level Washington Center
10:38AM 38.7897 -74.8061 215° Southwest 310 357 38,000  Level Washington Center
10:39AM 38.7192 -74.8706 215° Southwest 310 357 38,000  Level Washington Center
10:40AM 38.6486 -74.9297 213° Southwest 310 357 38,000  Level Washington Center
10:41AM 38.5803 -74.9967 217° Southwest 310 357 38,000  Level Washington Center
10:42AM 38.5097 -75.0611 216° Southwest 310 357 38,000  Level Washington Center
10:43AM 38.4369 -75.1253 215° Southwest 310 357 38,000  Level Washington Center
10:44AM 38.3683 -75.1867 215° Southwest 310 357 38,000  Level Washington Center
10:45AM 38.2956 -75.2558 217° Southwest 310 357 38,000  Level Washington Center
10:46AM 38.2250 -75.3169 214° Southwest 310 357 38,000  Level Washington Center
10:47AM 38.1478 -75.3753 211° Southwest 315 362 38,000  Level Washington Center
10:48AM 38.0708 -75.4256 207° Southwest 315 362 38,000  Level Washington Center
10:49AM 37.9917 -75.4783 208° Southwest 315 362 38,000  Level Washington Center
10:50AM 37.9144 -75.5364 211° Southwest 320 368 38,000  Level Washington Center
10:51AM 37.8372 -75.5892 208° Southwest 320 368 38,000  Level Washington Center
10:52AM 37.7581 -75.6444 209° Southwest 325 374 38,000  Level Washington Center
10:53AM 37.6789 -75.6994 209° Southwest 325 374 38,000  Level Washington Center
10:54AM 37.5994 -75.7544 209° Southwest 330 380 38,000  Level Washington Center
10:55AM 37.5203 -75.8092 209° Southwest 330 380 38,000  Level Washington Center
10:56AM 37.4408 -75.8614 208° Southwest 330 380 38,000  Level Washington Center
10:57AM 37.3594 -75.9158 208° Southwest 330 380 38,000  Level Washington Center
10:58AM 37.2800 -75.9703 209° Southwest 330 380 38,000  Level Washington Center
10:59AM 37.2006 -76.0247 209° Southwest 330 380 38,000  Level Washington Center
11:00AM 37.1211 -76.0789 209° Southwest 330 380 38,000  Level Washington Center
11:01AM 37.0436 -76.1331 209° Southwest 330 380 38,000  Level Washington Center
11:02AM 36.9514 -76.1869 205° Southwest 330 380 38,000  Level Washington Center
11:03AM 36.8719 -76.2411 209° Southwest 330 380 38,000  Level Washington Center
11:04AM 36.7925 -76.2947 208° Southwest 330 380 38,000  Level Washington Center
11:05AM 36.7108 -76.3483 208° Southwest 330 380 38,000  Level Washington Center
11:06AM 36.6311 -76.4072 211° Southwest 330 380 38,000  Level Washington Center
11:07AM 36.5492 -76.4606 208° Southwest 330 380 38,000  Level Washington Center
11:08AM 36.4656 -76.5139 207° Southwest 330 380 38,000  Level Washington Center
11:09AM 36.3817 -76.5722 209° Southwest 330 380 38,000  Level Washington Center
11:10AM 36.2997 -76.6256 208° Southwest 330 380 38,000  Level Washington Center
11:11AM 36.2136 -76.6783 206° Southwest 330 380 38,000  Level Washington Center
11:12AM 36.1297 -76.7339 208° Southwest 335 386 38,000  Level Washington Center
11:13AM 36.0436 -76.7892 207° Southwest 340 391 38,000  Level Washington Center
11:14AM 35.9597 -76.8469 209° Southwest 345 397 38,000  Level Washington Center
11:15AM 35.8714 -76.9019 207° Southwest 350 403 38,000  Level Washington Center
11:16AM 35.7853 -76.9542 206° Southwest 350 403 38,000  Level Washington Center
11:17AM 35.6889 -76.9908 197° South 355 409 38,000  Level Washington Center
11:18AM 35.6072 -77.0253 199° South 355 409 38,000  Level Washington Center
11:19AM 35.5147 -77.0619 198° South 355 409 38,000  Level Washington Center
11:20AM 35.4206 -77.1008 199° South 355 409 38,000  Level Washington Center
11:21AM 35.3281 -77.1375 198° South 355 409 38,000  Level Washington Center
11:22AM 35.2275 -77.1786 198° South 350 403 38,000  Level Washington Center
11:23AM 35.1331 -77.2150 197° South 350 403 38,000  Level Washington Center
11:24AM 35.0386 -77.2511 197° South 350 403 38,000  Level Washington Center
11:25AM 34.9464 -77.2922 200° South 355 409 38,000  Level Washington Center
11:26AM 34.8519 -77.3283 197° South 355 409 38,000  Level Washington Center
11:27AM 34.7575 -77.3692 200° South 355 409 38,000  Level Washington Center
11:28AM 34.6650 -77.4025 197° South 355 409 38,000  Level Washington Center
11:29AM 34.5706 -77.4433 200° South 355 409 38,000  Level Washington Center
11:30AM 34.4761 -77.4792 197° South 355 409 38,000  Level Washington Center
11:32AM 34.3050 -77.5461 198° South 360 414 38,000  Level Jacksonville Center
11:33AM 34.2067 -77.5825 197° South 360 414 38,000  Level Jacksonville Center
11:34AM 34.1058 -77.6211 198° South 371 427 38,000  Level Jacksonville Center
11:35AM 34.0072 -77.6569 197° South 377 434 38,000  Level Jacksonville Center
11:36AM 33.9089 -77.6981 199° South 377 434 38,000  Level Jacksonville Center
11:37AM 33.8083 -77.7364 198° South 377 434 38,000  Level Jacksonville Center
11:38AM 33.7117 -77.7719 197° South 377 434 38,000  Level Jacksonville Center
11:39AM 33.6131 -77.8128 199° South 377 434 38,000  Level Jacksonville Center
11:40AM 33.5167 -77.8506 198° South 377 434 38,000  Level Jacksonville Center
11:41AM 33.4178 -77.8861 197° South 377 434 38,000  Level Jacksonville Center
11:42AM 33.3192 -77.9239 198° South 377 434 38,000  Level Jacksonville Center
11:43AM 33.2203 -77.9592 197° South 377 434 38,000  Level Jacksonville Center
11:44AM 33.1217 -77.9994 199° South 377 434 38,000  Level Jacksonville Center
11:45AM 33.0231 -78.0344 197° South 377 434 38,000  Level Jacksonville Center
11:46AM 32.9242 -78.0719 198° South 377 434 38,000  Level Jacksonville Center
11:47AM 32.8236 -78.1119 198° South 377 434 38,000  Level Jacksonville Center
11:48AM 32.7247 -78.1469 197° South 377 434 38,000  Level Jacksonville Center
11:49AM 32.6258 -78.1842 198° South 377 434 38,000  Level Jacksonville Center
11:50AM 32.5292 -78.2236 199° South 377 434 38,000  Level Jacksonville Center
11:51AM 32.4325 -78.2606 198° South 377 434 38,000  Level Jacksonville Center
11:52AM 32.3317 -78.2975 197° South 377 434 38,000  Level Jacksonville Center
11:53AM 32.2328 -78.3369 199° South 377 434 38,000  Level Jacksonville Center
11:54AM 32.1339 -78.3714 196° South 377 434 38,000  Level Jacksonville Center
11:55AM 32.0369 -78.4081 198° South 370 426 38,000  Level Jacksonville Center
11:56AM 31.9361 -78.4472 198° South 381 438 38,000  Level Jacksonville Center
11:57AM 31.8372 -78.4836 197° South 376 433 38,000  Level Jacksonville Center
11:58AM 31.7383 -78.5203 198° South 382 440 38,000  Level Jacksonville Center
11:59AM 31.6372 -78.5567 197° South 377 434 38,000  Level Jacksonville Center
12:00PM 31.5403 -78.5928 198° South 377 434 38,000  Level Jacksonville Center
12:01PM 31.4414 -78.6314 198° South 372 428 38,000  Level Jacksonville Center
12:02PM 31.3444 -78.6650 196° South 372 428 38,000  Level Jacksonville Center
12:03PM 31.2475 -78.6986 197° South 377 434 38,000  Level Jacksonville Center
12:04PM 31.1506 -78.7344 198° South 377 434 38,000  Level Jacksonville Center
12:05PM 31.0536 -78.7703 198° South 377 434 38,000  Level Jacksonville Center
12:06PM 30.9567 -78.8036 196° South 377 434 38,000  Level Jacksonville Center
12:07PM 30.8575 -78.8394 197° South 377 434 38,000  Level Jacksonville Center
12:08PM 30.7583 -78.8750 197° South 372 428 38,000  Level Jacksonville Center
12:09PM 30.6531 -78.9108 196° South 382 440 38,000  Level Jacksonville Center
12:10PM 30.5400 -78.9506 197° South 368 423 38,000  Level Miami Center
12:11PM 30.4436 -78.9869 198° South 368 423 38,000  Level Miami Center
12:12PM 30.3431 -79.0306 201° Southwest 379 436 38,000  Level Miami Center
12:13PM 30.2422 -79.0717 199° South 386 444 38,000  Level Miami Center
12:14PM 30.1500 -79.1156 202° Southwest 386 444 38,000 -120 Level Miami Center
12:15PM 30.0450 -79.1589 200° South 386 444 37,800 -600 Descending Miami Center
12:16PM 29.9461 -79.2069 203° Southwest 386 444 36,900 -900 Descending Miami Center
12:17PM 29.8475 -79.2525 202° Southwest 392 451 36,000 -480 Descending Miami Center
12:18PM 29.7486 -79.3006 203° Southwest 392 451 36,000  Level Miami Center
12:19PM 29.6417 -79.3389 197° South 392 451 36,000  Level Miami Center
12:20PM 29.5389 -79.3769 198° South 392 451 36,000  Level Miami Center
12:21PM 29.4481 -79.4322 208° Southwest 386 444 36,000 -420 Level Miami Center
12:22PM 29.3411 -79.4678 196° South 386 444 35,200 -1,500 Descending Miami Center
12:23PM 29.2422 -79.5081 200° South 386 444 33,100 -2,040 Descending Miami Center
12:24PM 29.1475 -79.5511 202° Southwest 386 444 31,200 -1,920 Descending Miami Center
12:25PM 29.0756 -79.6181 219° Southwest 352 405 29,300 -1,920 Descending Miami Center
12:26PM 29.0483 -79.7219 253° West 328 377 27,400 -1,920 Descending Miami Center
12:27PM 29.0172 -79.8183 250° West 328 377 25,500 -1,860 Descending Miami Center
12:28PM 28.9900 -79.9172 253° West 328 377 23,700 -1,800 Descending Miami Center
12:29PM 28.9589 -80.0067 248° West 322 371 22,000 -1,680 Descending Miami Center
12:30PM 28.9339 -80.0936 252° West 310 357 20,400 -1,620 Descending Miami Center
12:32PM 28.8822 -80.2581 250° West 286 329 17,200 -1,740 Descending Miami Center
12:34PM 28.8333 -80.4000 249° West 278 320 14,100 -1,200 Descending Orlando TRACON
12:35PM 28.8167 -80.5000 259° West 286 329 14,000 -300 Descending Orlando TRACON
12:36PM 28.8167 -80.5833 270° West 281 323 13,600 -840 Descending Orlando TRACON
12:37PM 28.8000 -80.6667 257° West 279 321 12,500 -1,140 Descending Orlando TRACON
12:38PM 28.7833 -80.7500 257° West 277 319 11,500 -1,080 Descending Orlando TRACON
12:39PM 28.7667 -80.8333 257° West 273 314 10,400 -900 Descending Orlando TRACON
12:40PM 28.7667 -80.9167 270° West 250 288 9,800 -900 Descending Orlando TRACON
12:41PM 28.7500 -80.9833 254° West 247 284 8,700 -1,380 Descending Orlando TRACON
12:42PM 28.7333 -81.0667 257° West 247 284 7,100 -1,560 Descending Orlando TRACON
12:43PM 28.7167 -81.1333 254° West 236 272 5,600 -1,620 Descending Orlando TRACON
12:44PM 28.6833 -81.2000 240° Southwest 228 262 3,900 -1,320 Descending Orlando TRACON
12:45PM 28.6333 -81.2500 221° Southwest 230 265 3,000 -480 Descending Orlando TRACON
12:46PM 28.5833 -81.2833 210° Southwest 161 185 3,000 -420 Level Orlando TRACON
12:47PM 28.5500 -81.2833 180° South 155 178 2,200 -840 Descending Orlando TRACON
12:48PM 28.5167 -81.2833 180° South 139 160 1,400 -780 Descending Orlando TRACON
12:49PM 28.4667 -81.2833 180° South 124 143 700 -720 Descending Orlando TRACON